createdAt,value
2018-07-23T00:02:11.177Z,19.48
2018-07-23T00:04:39.588Z,20.23
2018-07-23T00:07:07.974Z,19.77
2018-07-23T00:09:35.859Z,19.60
2018-07-23T00:12:05.164Z,20.00
2018-07-23T00:14:33.354Z,20.05
2018-07-23T00:17:01.504Z,19.32
2018-07-23T00:19:29.786Z,19.30
2018-07-23T00:22:04.719Z,18.90
2018-07-23T00:24:32.613Z,20.08
2018-07-23T00:27:01.027Z,19.57
2018-07-23T00:29:29.406Z,19.80
2018-07-23T00:31:57.393Z,19.60
2018-07-23T00:34:25.507Z,19.30
2018-07-23T00:36:53.776Z,19.48
2018-07-23T00:39:21.893Z,18.95
2018-07-23T00:41:53.748Z,19.42
2018-07-23T00:44:22.084Z,20.10
2018-07-23T00:46:50.454Z,20.15
2018-07-23T00:49:18.556Z,20.82
2018-07-23T00:51:47.075Z,21.07
2018-07-23T00:54:15.547Z,19.95
2018-07-23T00:56:43.657Z,20.08
2018-07-23T00:59:12.067Z,20.20
2018-07-23T01:01:40.455Z,21.12
2018-07-23T01:04:08.851Z,19.62
2018-07-23T01:06:44.206Z,20.20
2018-07-23T01:09:12.915Z,19.80
2018-07-23T01:11:41.103Z,19.07
2018-07-23T01:14:09.517Z,20.45
2018-07-23T01:16:42.733Z,18.92
2018-07-23T01:19:11.126Z,19.73
2018-07-23T01:21:39.644Z,19.90
2018-07-23T01:24:08.985Z,19.40
2018-07-23T01:26:44.586Z,20.57
2018-07-23T01:29:12.686Z,20.70
2018-07-23T01:31:41.085Z,20.88
2018-07-23T01:34:09.082Z,21.15
2018-07-23T01:36:41.572Z,20.62
2018-07-23T01:39:10.484Z,21.50
2018-07-23T01:41:38.976Z,20.40
2018-07-23T01:44:30.604Z,20.80
2018-07-23T01:46:58.775Z,21.37
2018-07-23T01:49:26.890Z,21.05
2018-07-23T01:52:13.170Z,21.17
2018-07-23T01:54:41.264Z,22.62
2018-07-23T01:57:09.683Z,21.68
2018-07-23T01:59:37.681Z,21.45
2018-07-23T02:02:22.517Z,21.33
2018-07-23T02:04:50.863Z,21.70
2018-07-23T02:07:19.147Z,22.55
2018-07-23T02:18:30.187Z,22.60
2018-07-23T02:20:58.421Z,22.80
2018-07-23T02:23:26.951Z,22.53
2018-07-23T02:26:11.414Z,22.85
2018-07-23T02:28:39.904Z,21.80
2018-07-23T02:31:08.314Z,22.85
2018-07-23T02:33:36.700Z,22.37
2018-07-23T02:44:44.260Z,24.33
2018-07-23T02:47:12.784Z,23.62
2018-07-23T02:49:41.368Z,23.35
2018-07-23T02:52:09.659Z,23.30
2018-07-23T02:54:52.069Z,22.43
2018-07-23T02:57:20.167Z,23.10
2018-07-23T02:59:48.549Z,23.32
2018-07-23T03:02:17.205Z,24.37
2018-07-23T03:04:53.236Z,25.30
2018-07-23T03:07:21.607Z,23.07
2018-07-23T03:09:49.938Z,24.50
2018-07-23T03:12:24.371Z,24.50
2018-07-23T03:14:52.780Z,23.70
2018-07-23T03:17:21.068Z,24.40
2018-07-23T03:20:03.754Z,24.80
2018-07-23T03:22:32.654Z,24.87
2018-07-23T03:25:01.044Z,25.48
2018-07-23T03:27:29.590Z,24.32
2018-07-23T03:29:58.182Z,24.12
2018-07-23T03:32:26.394Z,25.48
2018-07-23T03:34:54.892Z,25.20
2018-07-23T03:37:22.968Z,25.60
2018-07-23T03:43:09.190Z,25.48
2018-07-23T03:45:37.386Z,26.73
2018-07-23T03:48:05.353Z,25.67
2018-07-23T03:50:33.459Z,25.60
2018-07-23T03:53:12.601Z,25.95
2018-07-23T03:55:40.997Z,25.82
2018-07-23T03:58:09.300Z,25.85
2018-07-23T04:00:37.807Z,26.40
2018-07-23T04:09:03.945Z,25.52
2018-07-23T04:11:32.151Z,25.55
2018-07-23T04:14:00.356Z,26.68
2018-07-23T04:16:28.827Z,25.55
2018-07-23T04:21:52.213Z,25.52
2018-07-23T04:24:20.650Z,26.23
2018-07-23T04:26:49.130Z,26.50
2018-07-23T04:29:17.337Z,27.37
2018-07-23T04:31:59.932Z,26.25
2018-07-23T04:34:28.244Z,26.17
2018-07-23T04:36:57.373Z,26.33
2018-07-23T04:39:25.661Z,26.40
2018-07-23T04:42:12.781Z,25.72
2018-07-23T04:44:41.176Z,28.15
2018-07-23T04:47:09.658Z,27.13
2018-07-23T04:49:38.021Z,27.82
2018-07-23T04:52:11.976Z,26.70
2018-07-23T04:54:40.498Z,27.15
2018-07-23T04:57:09.106Z,27.37
2018-07-23T04:59:40.798Z,28.10
2018-07-23T05:02:09.589Z,26.12
2018-07-23T05:04:37.882Z,26.27
2018-07-23T05:07:06.278Z,25.68
2018-07-23T05:09:47.572Z,25.70
2018-07-23T05:12:15.990Z,25.40
2018-07-23T05:14:44.365Z,24.40
2018-07-23T05:17:16.047Z,23.75
2018-07-23T05:19:44.584Z,22.42
2018-07-23T05:22:12.748Z,23.27
2018-07-23T05:24:59.985Z,22.15
2018-07-23T05:27:28.261Z,21.10
2018-07-23T05:29:56.348Z,23.92
2018-07-23T05:32:24.748Z,22.20
2018-07-23T05:34:54.287Z,21.50
2018-07-23T05:37:22.644Z,21.93
2018-07-23T05:39:51.211Z,21.90
2018-07-23T05:42:19.676Z,22.90
2018-07-23T05:44:57.682Z,21.95
2018-07-23T05:47:25.884Z,20.95
2018-07-23T05:49:53.960Z,21.80
2018-07-23T05:55:26.453Z,20.50
2018-07-23T05:57:54.567Z,20.40
2018-07-23T06:00:22.736Z,20.50
2018-07-23T06:02:51.051Z,20.10
2018-07-23T06:05:42.700Z,20.23
2018-07-23T06:08:11.202Z,19.90
2018-07-23T06:10:39.868Z,20.68
2018-07-23T06:13:08.426Z,19.27
2018-07-23T06:15:43.640Z,19.27
2018-07-23T06:18:11.830Z,20.15
2018-07-23T06:20:40.347Z,19.00
2018-07-23T06:23:08.830Z,19.40
2018-07-23T06:25:37.348Z,19.40
2018-07-23T06:28:06.145Z,18.90
2018-07-23T06:30:34.632Z,19.60
2018-07-23T06:33:06.505Z,18.77
2018-07-23T06:35:35.217Z,18.32
2018-07-23T06:38:03.830Z,18.00
2018-07-23T06:40:36.125Z,17.90
2018-07-23T06:43:04.424Z,16.07
2018-07-23T06:45:32.842Z,14.60
2018-07-23T06:48:01.259Z,16.60
2018-07-23T06:50:29.623Z,16.20
2018-07-23T06:52:58.322Z,15.20
2018-07-23T06:55:26.869Z,13.93
2018-07-23T06:57:55.444Z,15.17
2018-07-23T07:00:23.850Z,15.43
2018-07-23T07:02:52.110Z,14.05
2018-07-23T07:05:20.428Z,14.18
2018-07-23T07:07:48.736Z,14.70
2018-07-23T07:10:17.124Z,14.58
2018-07-23T07:12:48.647Z,14.73
2018-07-23T07:15:16.767Z,15.50
2018-07-23T07:17:44.659Z,13.32
2018-07-23T07:20:12.626Z,13.65
2018-07-23T07:22:40.666Z,14.90
2018-07-23T07:25:08.589Z,14.60
2018-07-23T07:27:36.567Z,14.20
2018-07-23T07:30:05.927Z,14.40
2018-07-23T07:32:33.923Z,16.00
2018-07-23T07:35:01.892Z,15.40
2018-07-23T07:37:30.365Z,14.13
2018-07-23T07:39:58.737Z,14.20
2018-07-23T07:42:27.170Z,14.30
2018-07-23T07:44:55.427Z,14.15
2018-07-23T07:47:24.479Z,14.80
2018-07-23T07:49:53.204Z,14.17
2018-07-23T07:52:21.408Z,13.53
2018-07-23T07:54:49.550Z,12.13
2018-07-23T07:57:17.833Z,12.93
2018-07-23T07:59:46.039Z,14.30
2018-07-23T08:02:14.334Z,13.30
2018-07-23T08:04:42.723Z,13.83
2018-07-23T08:07:11.005Z,13.60
2018-07-23T08:09:39.647Z,13.32
2018-07-23T08:12:08.035Z,13.08
2018-07-23T08:14:36.644Z,12.95
2018-07-23T08:17:05.041Z,13.53
2018-07-23T08:19:33.365Z,12.90
2018-07-23T08:22:02.042Z,14.10
2018-07-23T08:24:30.325Z,12.40
2018-07-23T08:26:58.533Z,10.95
2018-07-23T08:29:26.747Z,11.40
2018-07-23T08:31:55.264Z,10.78
2018-07-23T08:34:23.716Z,10.60
2018-07-23T08:36:52.035Z,10.78
2018-07-23T08:39:20.427Z,10.30
2018-07-23T08:41:48.859Z,10.35
2018-07-23T08:44:17.436Z,9.60
2018-07-23T08:46:45.630Z,11.20
2018-07-23T08:49:14.011Z,20.35
2018-07-23T08:51:42.440Z,11.43
2018-07-23T08:54:10.828Z,14.78
2018-07-23T08:56:39.310Z,11.33
2018-07-23T08:59:07.750Z,10.60
2018-07-23T09:01:36.980Z,8.63
2018-07-23T09:04:05.674Z,9.00
2018-07-23T09:06:34.969Z,8.63
2018-07-23T09:09:03.713Z,8.63
2018-07-23T09:11:32.290Z,8.80
2018-07-23T09:14:01.304Z,9.20
2018-07-23T09:16:29.772Z,9.17
2018-07-23T09:18:58.097Z,9.80
2018-07-23T09:21:26.174Z,9.10
2018-07-23T09:23:54.522Z,8.53
2018-07-23T09:26:23.094Z,8.80
2018-07-23T09:28:51.476Z,7.60
2018-07-23T09:31:19.937Z,7.00
2018-07-23T09:33:49.067Z,7.40
2018-07-23T09:36:18.027Z,8.10
2018-07-23T09:38:46.546Z,8.25
2018-07-23T09:41:14.999Z,8.00
2018-07-23T09:43:44.145Z,7.92
2018-07-23T09:46:12.532Z,7.62
2018-07-23T09:48:41.263Z,8.63
2018-07-23T09:51:09.521Z,7.90
2018-07-23T09:53:37.853Z,7.95
2018-07-23T09:56:07.020Z,7.70
2018-07-23T09:58:36.280Z,8.48
2018-07-23T10:01:09.978Z,7.75
2018-07-23T10:03:38.462Z,8.10
2018-07-23T10:06:07.271Z,7.75
2018-07-23T10:08:35.676Z,8.33
2018-07-23T10:11:04.332Z,8.10
2018-07-23T10:13:33.105Z,7.05
2018-07-23T10:16:01.133Z,7.30
2018-07-23T10:18:29.695Z,7.80
2018-07-23T10:20:58.129Z,7.30
2018-07-23T10:23:26.690Z,7.40
2018-07-23T10:25:55.325Z,7.80
2018-07-23T10:28:23.703Z,8.95
2018-07-23T10:30:52.227Z,8.03
2018-07-23T10:33:20.518Z,7.85
2018-07-23T10:35:48.402Z,7.35
2018-07-23T10:38:16.880Z,7.10
2018-07-23T10:40:45.537Z,6.58
2018-07-23T10:43:13.933Z,6.80
2018-07-23T10:45:42.414Z,6.90
2018-07-23T10:48:10.716Z,6.62
2018-07-23T10:50:39.223Z,7.50
2018-07-23T10:53:07.871Z,6.70
2018-07-23T10:55:36.255Z,7.40
2018-07-23T10:58:04.576Z,6.95
2018-07-23T11:00:33.241Z,7.20
2018-07-23T11:03:02.160Z,7.17
2018-07-23T11:05:30.636Z,6.60
2018-07-23T11:07:59.253Z,6.75
2018-07-23T11:10:28.060Z,6.55
2018-07-23T11:12:56.555Z,6.78
2018-07-23T11:15:24.947Z,7.00
2018-07-23T11:17:53.559Z,7.10
2018-07-23T11:20:22.066Z,7.90
2018-07-23T11:22:50.461Z,7.70
2018-07-23T11:25:39.178Z,7.17
2018-07-23T11:27:47.463Z,6.83
2018-07-23T11:30:15.619Z,7.33
2018-07-23T11:32:44.893Z,6.72
2018-07-23T11:35:13.379Z,7.30
2018-07-23T11:37:41.967Z,6.60
2018-07-23T11:40:10.257Z,6.70
2018-07-23T11:42:38.694Z,6.70
2018-07-23T11:45:06.860Z,7.20
2018-07-23T11:47:35.058Z,6.50
2018-07-23T11:50:03.152Z,6.83
2018-07-23T11:52:31.608Z,6.78
2018-07-23T11:54:59.842Z,6.60
2018-07-23T11:57:27.929Z,6.60
2018-07-23T11:59:56.446Z,6.60
2018-07-23T12:02:24.389Z,6.20
2018-07-23T12:04:52.672Z,6.80
2018-07-23T12:07:21.052Z,7.00
2018-07-23T12:09:49.337Z,6.75
2018-07-23T12:12:17.633Z,6.92
2018-07-23T12:14:45.721Z,7.07
2018-07-23T12:17:14.945Z,7.53
2018-07-23T12:19:43.748Z,6.22
2018-07-23T12:22:11.751Z,6.17
2018-07-23T12:24:40.554Z,6.05
2018-07-23T12:27:08.739Z,7.90
2018-07-23T12:29:36.945Z,7.58
2018-07-23T12:32:05.427Z,7.67
2018-07-23T12:34:34.281Z,7.00
2018-07-23T12:37:02.649Z,6.90
2018-07-23T12:39:31.105Z,7.00
2018-07-23T12:41:59.482Z,7.35
2018-07-23T12:44:27.845Z,7.20
2018-07-23T12:46:55.941Z,6.72
2018-07-23T12:49:24.042Z,7.20
2018-07-23T12:51:52.348Z,7.83
2018-07-23T12:54:20.622Z,7.50
2018-07-23T12:56:52.409Z,7.10
2018-07-23T12:59:20.495Z,7.40
2018-07-23T13:01:48.805Z,7.45
2018-07-23T13:04:16.983Z,7.35
2018-07-23T13:06:50.693Z,7.37
2018-07-23T13:09:19.008Z,6.83
2018-07-23T13:11:47.339Z,6.90
2018-07-23T13:14:15.704Z,7.40
2018-07-23T13:16:49.224Z,6.53
2018-07-23T13:19:17.231Z,6.20
2018-07-23T13:21:45.605Z,6.80
2018-07-23T13:24:14.212Z,7.50
2018-07-23T13:26:42.607Z,6.78
2018-07-23T13:29:10.912Z,6.90
2018-07-23T13:31:39.392Z,6.70
2018-07-23T13:34:07.684Z,6.92
2018-07-23T13:36:36.113Z,6.90
2018-07-23T13:39:07.640Z,6.60
2018-07-23T13:41:36.084Z,7.10
2018-07-23T13:44:04.572Z,7.40
2018-07-23T13:46:32.969Z,6.70
2018-07-23T13:49:01.461Z,6.90
2018-07-23T13:51:29.679Z,6.83
2018-07-23T13:53:57.830Z,7.22
2018-07-23T13:56:26.403Z,7.60
2018-07-23T13:58:55.426Z,7.87
2018-07-23T14:01:23.657Z,8.10
2018-07-23T14:03:52.172Z,8.20
2018-07-23T14:06:20.296Z,7.50
2018-07-23T14:08:48.676Z,7.35
2018-07-23T14:11:16.836Z,7.95
2018-07-23T14:13:45.456Z,7.20
2018-07-23T14:16:13.758Z,7.45
2018-07-23T14:18:42.045Z,7.40
2018-07-23T14:21:10.453Z,8.53
2018-07-23T14:23:38.981Z,8.60
2018-07-23T14:26:07.283Z,8.75
2018-07-23T14:28:35.670Z,7.72
2018-07-23T14:31:03.831Z,8.23
2018-07-23T14:33:32.477Z,8.23
2018-07-23T14:36:00.764Z,8.10
2018-07-23T14:38:29.213Z,7.90
2018-07-23T14:40:57.660Z,7.60
2018-07-23T14:43:25.843Z,8.33
2018-07-23T14:45:56.414Z,7.78
2018-07-23T14:48:24.691Z,8.88
2018-07-23T14:50:53.215Z,9.88
2018-07-23T14:53:25.180Z,8.80
2018-07-23T14:55:53.274Z,9.48
2018-07-23T14:58:21.384Z,8.50
2018-07-23T15:00:49.636Z,8.90
2018-07-23T15:03:17.894Z,7.83
2018-07-23T15:08:39.212Z,7.47
2018-07-23T15:11:07.748Z,8.17
2018-07-23T15:13:36.169Z,8.30
2018-07-23T15:16:04.513Z,8.30
2018-07-23T15:18:32.932Z,8.95
2018-07-23T15:21:01.553Z,8.70
2018-07-23T15:23:29.990Z,8.45
2018-07-23T15:25:58.909Z,8.33
2018-07-23T15:28:27.216Z,8.40
2018-07-23T15:30:55.417Z,8.10
2018-07-23T15:33:23.955Z,7.60
2018-07-23T15:35:52.379Z,7.40
2018-07-23T15:38:20.914Z,7.10
2018-07-23T15:40:49.225Z,7.65
2018-07-23T15:43:17.668Z,7.22
2018-07-23T15:45:46.365Z,7.35
2018-07-23T15:48:14.626Z,6.65
2018-07-23T15:50:43.017Z,7.10
2018-07-23T15:53:11.748Z,6.80
2018-07-23T15:55:40.435Z,6.70
2018-07-23T15:58:08.720Z,6.05
2018-07-23T16:00:38.274Z,7.10
2018-07-23T16:03:07.389Z,7.42
2018-07-23T16:05:35.786Z,8.68
2018-07-23T16:08:03.873Z,8.70
2018-07-23T16:10:39.079Z,8.73
2018-07-23T16:13:07.332Z,8.25
2018-07-23T16:15:35.773Z,8.20
2018-07-23T16:18:06.106Z,8.00
2018-07-23T16:20:34.166Z,8.05
2018-07-23T16:23:03.060Z,8.60
2018-07-23T16:25:31.147Z,7.72
2018-07-23T16:27:59.552Z,7.30
2018-07-23T16:32:55.941Z,7.40
2018-07-23T16:35:24.150Z,8.40
2018-07-23T16:37:56.215Z,6.67
2018-07-23T16:40:24.504Z,5.97
2018-07-23T16:42:53.059Z,7.37
2018-07-23T16:45:21.420Z,5.90
2018-07-23T16:47:50.035Z,5.60
2018-07-23T16:50:18.538Z,5.28
2018-07-23T16:52:46.950Z,5.42
2018-07-23T16:55:15.418Z,5.70
2018-07-23T16:57:49.566Z,5.70
2018-07-23T17:00:17.976Z,5.65
2018-07-23T17:02:46.496Z,5.63
2018-07-23T17:05:18.471Z,5.60
2018-07-23T17:07:47.050Z,5.42
2018-07-23T17:10:17.471Z,5.65
2018-07-23T17:12:56.944Z,5.75
2018-07-23T17:15:25.258Z,5.70
2018-07-23T17:17:53.656Z,5.40
2018-07-23T17:20:21.735Z,5.10
2018-07-23T17:22:49.818Z,5.00
2018-07-23T17:25:17.873Z,4.40
2018-07-23T17:27:46.423Z,5.70
2018-07-23T17:30:15.211Z,5.60
2018-07-23T17:32:43.217Z,5.10
2018-07-23T17:35:11.659Z,5.20
2018-07-23T17:37:40.121Z,5.22
2018-07-23T17:40:08.695Z,5.20
2018-07-23T17:42:37.333Z,5.40
2018-07-23T17:45:05.967Z,5.72
2018-07-23T17:47:34.341Z,5.80
2018-07-23T17:50:03.349Z,7.08
2018-07-23T17:52:31.850Z,5.90
2018-07-23T17:55:00.059Z,6.03
2018-07-23T17:57:28.574Z,5.90
2018-07-23T17:59:56.897Z,8.50
2018-07-23T18:02:25.111Z,5.90
2018-07-23T18:04:53.309Z,6.00
2018-07-23T18:07:22.207Z,6.25
2018-07-23T18:09:50.576Z,5.90
2018-07-23T18:12:19.103Z,6.10
2018-07-23T18:14:47.361Z,5.70
2018-07-23T18:17:15.636Z,5.83
2018-07-23T18:19:43.738Z,5.90
2018-07-23T18:22:12.133Z,5.65
2018-07-23T18:24:41.184Z,5.30
2018-07-23T18:27:09.958Z,6.08
2018-07-23T18:29:38.447Z,5.35
2018-07-23T18:32:06.581Z,5.90
2018-07-23T18:34:35.127Z,5.80
2018-07-23T18:37:05.587Z,5.47
2018-07-23T18:39:33.896Z,5.58
2018-07-23T18:42:02.409Z,6.30
2018-07-23T18:47:34.488Z,6.72
2018-07-23T18:50:02.835Z,9.40
2018-07-23T18:52:31.375Z,7.53
2018-07-23T18:55:00.620Z,7.53
2018-07-23T18:57:34.198Z,6.00
2018-07-23T19:00:03.161Z,6.45
2018-07-23T19:02:31.463Z,6.03
2018-07-23T19:05:00.694Z,6.10
2018-07-23T19:07:39.583Z,6.80
2018-07-23T19:10:09.107Z,5.97
2018-07-23T19:12:37.614Z,6.40
2018-07-23T19:15:06.420Z,7.23
2018-07-23T19:17:41.780Z,7.23
2018-07-23T19:20:10.208Z,6.50
2018-07-23T19:22:38.691Z,6.15
2018-07-23T19:25:07.054Z,6.60
2018-07-23T19:27:35.471Z,6.25
2018-07-23T19:30:05.619Z,6.72
2018-07-23T19:32:34.093Z,6.80
2018-07-23T19:35:02.644Z,6.97
2018-07-23T19:37:40.802Z,6.95
2018-07-23T19:40:09.359Z,7.55
2018-07-23T19:42:37.761Z,7.03
2018-07-23T19:45:06.417Z,6.70
2018-07-23T19:47:46.256Z,7.60
2018-07-23T19:50:14.490Z,7.13
2018-07-23T19:52:43.002Z,7.53
2018-07-23T19:55:11.578Z,7.80
2018-07-23T19:57:51.621Z,7.87
2018-07-23T20:00:20.579Z,8.90
2018-07-23T20:02:48.861Z,8.48
2018-07-23T20:05:16.955Z,9.13
2018-07-23T20:07:50.979Z,8.20
2018-07-23T20:10:19.876Z,8.83
2018-07-23T20:12:48.028Z,8.53
2018-07-23T20:15:32.552Z,8.63
2018-07-23T20:18:01.050Z,9.10
2018-07-23T20:20:29.476Z,9.60
2018-07-23T20:22:57.997Z,9.53
2018-07-23T20:25:51.001Z,9.73
2018-07-23T20:28:19.321Z,9.88
2018-07-23T20:30:47.709Z,10.10
2018-07-23T20:33:15.990Z,11.37
2018-07-23T20:35:45.283Z,11.60
2018-07-23T20:38:13.707Z,12.28
2018-07-23T20:40:42.270Z,12.82
2018-07-23T20:43:10.698Z,12.60
2018-07-23T20:45:49.346Z,12.03
2018-07-23T20:48:17.551Z,12.23
2018-07-23T20:50:45.680Z,12.53
2018-07-23T20:53:13.686Z,11.95
2018-07-23T20:55:41.984Z,12.00
2018-07-23T20:58:10.623Z,10.80
2018-07-23T21:00:39.243Z,10.25
2018-07-23T21:03:07.627Z,10.20
2018-07-23T21:05:36.333Z,10.13
2018-07-23T21:08:04.949Z,9.60
2018-07-23T21:10:33.643Z,9.83
2018-07-23T21:13:02.217Z,9.78
2018-07-23T21:15:30.748Z,9.60
2018-07-23T21:17:59.233Z,9.43
2018-07-23T21:20:27.419Z,10.10
2018-07-23T21:22:55.944Z,9.45
2018-07-23T21:25:24.255Z,9.63
2018-07-23T21:27:52.567Z,8.47
2018-07-23T21:30:21.143Z,9.85
2018-07-23T21:32:49.552Z,9.40
2018-07-23T21:35:17.925Z,9.83
2018-07-23T21:37:48.086Z,9.33
2018-07-23T21:40:16.782Z,9.80
2018-07-23T21:42:45.289Z,9.33
2018-07-23T21:45:18.126Z,9.80
2018-07-23T21:47:46.355Z,10.05
2018-07-23T21:50:14.892Z,9.60
2018-07-23T21:52:43.070Z,9.00
2018-07-23T21:55:11.412Z,9.33
2018-07-23T21:57:39.869Z,9.68
2018-07-23T22:00:10.026Z,9.90
2018-07-23T22:02:38.330Z,9.20
2018-07-23T22:05:07.607Z,9.88
2018-07-23T22:07:35.921Z,9.85
2018-07-23T22:10:04.548Z,9.97
2018-07-23T22:12:33.030Z,10.00
2018-07-23T22:15:01.431Z,10.05
2018-07-23T22:17:29.723Z,9.78
2018-07-23T22:19:58.145Z,9.67
2018-07-23T22:22:31.111Z,10.25
2018-07-23T22:24:59.646Z,10.03
2018-07-23T22:27:27.728Z,9.95
2018-07-23T22:29:56.126Z,10.50
2018-07-23T22:32:30.366Z,10.53
2018-07-23T22:34:58.739Z,10.50
2018-07-23T22:37:26.989Z,10.08
2018-07-23T22:39:55.338Z,10.30
2018-07-23T22:42:25.870Z,10.35
2018-07-23T22:44:54.298Z,10.15
2018-07-23T22:47:22.416Z,10.70
2018-07-23T22:49:51.331Z,10.18
2018-07-23T22:52:19.594Z,11.05
2018-07-23T22:54:47.493Z,11.20
2018-07-23T22:57:15.573Z,10.30
2018-07-23T22:59:43.853Z,10.25
2018-07-23T23:02:12.261Z,10.80
2018-07-23T23:04:40.689Z,10.45
2018-07-23T23:07:13.679Z,10.40
2018-07-23T23:09:41.780Z,10.80
2018-07-23T23:12:09.612Z,10.93
2018-07-23T23:14:37.764Z,10.48
2018-07-23T23:17:05.732Z,10.40
2018-07-23T23:19:34.008Z,11.20
2018-07-23T23:22:02.342Z,10.20
2018-07-23T23:24:30.310Z,10.85
2018-07-23T23:27:06.211Z,11.07
2018-07-23T23:29:34.670Z,11.20
2018-07-23T23:32:03.004Z,11.00
2018-07-23T23:34:35.798Z,10.20
2018-07-23T23:37:03.959Z,11.20
2018-07-23T23:39:32.400Z,11.55
2018-07-23T23:42:00.783Z,11.00
2018-07-23T23:44:29.095Z,11.00
2018-07-23T23:46:57.410Z,11.05
2018-07-23T23:49:25.889Z,11.12
2018-07-23T23:51:57.563Z,10.63
2018-07-23T23:54:25.648Z,11.25
2018-07-23T23:56:53.754Z,11.03
2018-07-23T23:59:22.233Z,11.00
